Time;durP1;ratioP1;P1;durP2;ratioP2;P2;SDS_P1;SDS_P2;PMS_P1;PMS_P2;Temp;Humidity;BMP_temperature;BMP_pressure;BME280_temperature;BME280_humidity;BME280_pressure;Samples;Min_cycle;Max_cycle;Signal;HPM_P1;HPM_P2
2022/02/12 00:00:20;;;;;;;10.88;8.00;;;;;;;;;;5004633;28;20049;-61
2022/02/12 00:02:45;;;;;;;11.63;7.65;;;;;;;;;;5004341;28;20044;-60
2022/02/12 00:05:11;;;;;;;11.88;7.85;;;;;;;;;;5005063;28;20811;-62
2022/02/12 00:07:37;;;;;;;11.25;7.78;;;;;;;;;;5004905;28;20034;-62
2022/02/12 00:10:03;;;;;;;12.95;7.75;;;;;;;;;;5004114;28;20470;-61
2022/02/12 00:12:28;;;;;;;11.20;7.93;;;;;;;;;;5003944;28;20017;-62
2022/02/12 00:14:56;;;;;;;9.90;7.17;;;;;;;;;;5005073;28;20026;-61
2022/02/12 00:17:21;;;;;;;10.32;7.80;;;;;;;;;;5004055;28;20291;-58
2022/02/12 00:19:46;;;;;;;11.73;7.18;;;;;;;;;;5004486;28;20544;-62
2022/02/12 00:22:11;;;;;;;12.17;8.10;;;;;;;;;;5004555;28;20037;-63
2022/02/12 00:24:37;;;;;;;11.33;7.77;;;;;;;;;;5003995;28;20044;-61
2022/02/12 00:27:02;;;;;;;12.23;7.60;;;;;;;;;;5004589;28;20281;-60
2022/02/12 00:29:27;;;;;;;11.55;7.95;;;;;;;;;;5004457;28;20306;-61
2022/02/12 00:31:52;;;;;;;11.07;8.00;;;;;;;;;;4991198;28;20018;-58
2022/02/12 00:34:18;;;;;;;11.97;7.93;;;;;;;;;;4984965;28;20284;-57
2022/02/12 00:36:43;;;;;;;11.02;7.63;;;;;;;;;;5003933;28;20344;-63
2022/02/12 00:39:09;;;;;;;12.30;7.77;;;;;;;;;;5010628;28;20294;-58
2022/02/12 00:41:34;;;;;;;10.10;7.40;;;;;;;;;;5013557;28;20330;-58
2022/02/12 00:43:59;;;;;;;12.38;7.20;;;;;;;;;;5004288;28;20113;-62
2022/02/12 00:46:25;;;;;;;10.63;7.40;;;;;;;;;;5003611;28;20567;-63
2022/02/12 00:48:50;;;;;;;11.15;7.80;;;;;;;;;;5003990;28;20703;-63
2022/02/12 00:51:15;;;;;;;12.35;8.07;;;;;;;;;;5003827;28;20567;-61
2022/02/12 00:53:40;;;;;;;11.52;7.38;;;;;;;;;;5004068;28;20022;-58
2022/02/12 00:56:06;;;;;;;11.32;7.68;;;;;;;;;;5003988;28;20743;-61
2022/02/12 00:58:31;;;;;;;11.65;7.97;;;;;;;;;;5003613;28;20030;-61
2022/02/12 01:00:56;;;;;;;11.87;7.67;;;;;;;;;;5004341;28;20033;-58
2022/02/12 01:03:22;;;;;;;11.73;7.40;;;;;;;;;;5003445;28;20025;-61
2022/02/12 01:05:47;;;;;;;11.60;7.77;;;;;;;;;;5003795;28;20272;-59
2022/02/12 01:08:12;;;;;;;11.13;8.07;;;;;;;;;;5004163;28;20265;-62
2022/02/12 01:10:37;;;;;;;10.87;7.70;;;;;;;;;;5001336;28;20404;-56
2022/02/12 01:13:03;;;;;;;11.57;7.40;;;;;;;;;;4983957;28;20292;-61
2022/02/12 01:15:28;;;;;;;9.73;7.45;;;;;;;;;;4993630;28;20113;-58
2022/02/12 01:17:53;;;;;;;10.98;7.55;;;;;;;;;;5003389;28;20635;-58
2022/02/12 01:20:18;;;;;;;10.57;6.97;;;;;;;;;;5020180;28;20396;-59
2022/02/12 01:22:46;;;;;;;12.07;7.65;;;;;;;;;;5004335;28;20360;-62
2022/02/12 01:25:11;;;;;;;11.13;7.15;;;;;;;;;;5003519;28;20484;-61
2022/02/12 01:27:36;;;;;;;11.30;7.47;;;;;;;;;;5004394;28;20048;-61
2022/02/12 01:30:02;;;;;;;10.75;7.05;;;;;;;;;;5004476;28;20292;-62
2022/02/12 01:32:29;;;;;;;11.68;8.25;;;;;;;;;;5003365;28;20124;-56
2022/02/12 01:34:54;;;;;;;12.57;8.00;;;;;;;;;;5007379;28;20018;-62
2022/02/12 01:37:20;;;;;;;9.98;7.43;;;;;;;;;;4989772;28;20768;-61
2022/02/12 01:39:45;;;;;;;9.70;7.05;;;;;;;;;;5006850;28;20021;-62
2022/02/12 01:42:10;;;;;;;10.90;7.70;;;;;;;;;;5007188;28;20043;-62
2022/02/12 01:44:36;;;;;;;11.60;7.63;;;;;;;;;;5007148;28;20304;-63
2022/02/12 01:47:01;;;;;;;11.82;7.50;;;;;;;;;;5006622;28;20288;-62
2022/02/12 01:49:26;;;;;;;10.23;7.07;;;;;;;;;;5007590;28;20057;-65
2022/02/12 01:51:52;;;;;;;10.30;7.55;;;;;;;;;;5006838;28;20022;-63
2022/02/12 01:54:17;;;;;;;10.70;6.90;;;;;;;;;;5006651;28;20029;-56
2022/02/12 01:56:43;;;;;;;10.40;7.17;;;;;;;;;;5006664;28;20018;-62
2022/02/12 01:59:08;;;;;;;10.38;7.47;;;;;;;;;;4982538;28;20292;-59
2022/02/12 02:01:33;;;;;;;11.77;8.10;;;;;;;;;;4996695;28;20037;-56
2022/02/12 02:03:59;;;;;;;10.52;7.38;;;;;;;;;;5006764;28;20747;-62
2022/02/12 02:06:24;;;;;;;11.13;7.70;;;;;;;;;;5006642;28;20109;-62
2022/02/12 02:08:49;;;;;;;10.60;7.47;;;;;;;;;;4989228;28;20272;-63
2022/02/12 02:11:15;;;;;;;11.33;7.47;;;;;;;;;;5006643;28;20269;-60
2022/02/12 02:13:41;;;;;;;11.65;7.45;;;;;;;;;;5006809;28;20296;-62
2022/02/12 02:16:11;;;;;;;10.50;7.47;;;;;;;;;;5006432;28;20053;-59
2022/02/12 02:18:37;;;;;;;10.75;7.55;;;;;;;;;;5006154;28;20762;-63
2022/02/12 02:21:03;;;;;;;9.57;6.87;;;;;;;;;;5006434;28;20057;-62
2022/02/12 02:23:29;;;;;;;11.07;7.25;;;;;;;;;;4985921;28;20842;-60
2022/02/12 02:25:54;;;;;;;11.07;7.43;;;;;;;;;;4998897;28;20053;-61
2022/02/12 02:28:19;;;;;;;10.60;7.20;;;;;;;;;;5006861;28;20380;-62
2022/02/12 02:30:44;;;;;;;10.93;7.70;;;;;;;;;;5006271;28;20303;-62
2022/02/12 02:33:10;;;;;;;10.93;7.90;;;;;;;;;;5005920;28;20267;-62
2022/02/12 02:35:35;;;;;;;10.63;7.27;;;;;;;;;;5006326;28;20034;-63
2022/02/12 02:38:07;;;;;;;11.13;7.47;;;;;;;;;;5006471;28;20352;-61
2022/02/12 02:40:32;;;;;;;10.70;7.53;;;;;;;;;;5005747;28;20144;-62
2022/02/12 02:42:57;;;;;;;9.17;6.57;;;;;;;;;;5006370;28;20097;-61
2022/02/12 02:45:23;;;;;;;10.37;7.57;;;;;;;;;;5005134;28;20307;-61
2022/02/12 02:47:48;;;;;;;10.50;7.43;;;;;;;;;;5005616;28;20296;-62
2022/02/12 02:55:59;;;;;;;11.18;7.68;;;;;;;;;;5008678;28;20136;-63
2022/02/12 02:58:25;;;;;;;9.45;7.05;;;;;;;;;;4991920;28;20068;-61
2022/02/12 03:00:50;;;;;;;11.23;7.35;;;;;;;;;;5003112;28;20034;-63
2022/02/12 03:03:15;;;;;;;11.97;7.30;;;;;;;;;;4985940;28;20030;-63
2022/02/12 03:05:41;;;;;;;9.87;7.00;;;;;;;;;;4986622;28;20269;-63
2022/02/12 03:08:06;;;;;;;10.40;7.07;;;;;;;;;;4986577;28;20827;-62
2022/02/12 03:10:31;;;;;;;9.97;7.40;;;;;;;;;;4968473;28;20795;-62
2022/02/12 03:12:56;;;;;;;10.47;6.97;;;;;;;;;;5001676;28;20742;-62
2022/02/12 03:15:21;;;;;;;11.17;7.33;;;;;;;;;;4996570;28;20699;-62
2022/02/12 03:17:47;;;;;;;10.03;7.40;;;;;;;;;;5007472;28;20322;-61
2022/02/12 03:20:12;;;;;;;10.50;6.93;;;;;;;;;;5005689;28;20161;-63
2022/02/12 03:22:38;;;;;;;11.00;7.53;;;;;;;;;;5004580;28;20025;-59
2022/02/12 03:25:03;;;;;;;11.60;8.00;;;;;;;;;;5003980;28;20257;-60
2022/02/12 03:27:28;;;;;;;10.20;7.40;;;;;;;;;;5003992;28;20717;-61
2022/02/12 03:29:54;;;;;;;9.43;6.90;;;;;;;;;;4986933;28;20526;-59
2022/02/12 03:32:19;;;;;;;11.97;8.23;;;;;;;;;;5004402;28;20738;-58
2022/02/12 03:34:44;;;;;;;9.63;7.15;;;;;;;;;;5004775;28;20706;-61
2022/02/12 03:37:09;;;;;;;10.38;7.43;;;;;;;;;;5004641;28;20033;-62
2022/02/12 03:39:35;;;;;;;9.93;7.45;;;;;;;;;;4994803;28;20428;-58
2022/02/12 03:42:00;;;;;;;9.87;7.00;;;;;;;;;;4967100;28;20076;-59
2022/02/12 03:44:25;;;;;;;10.33;7.23;;;;;;;;;;5000755;28;20339;-59
2022/02/12 03:46:50;;;;;;;8.95;6.72;;;;;;;;;;5003912;28;20284;-62
2022/02/12 03:49:16;;;;;;;10.97;7.20;;;;;;;;;;5004485;28;20072;-62
2022/02/12 03:51:41;;;;;;;8.63;6.53;;;;;;;;;;4994089;28;20292;-63
2022/02/12 03:54:06;;;;;;;9.70;6.70;;;;;;;;;;4984624;28;20275;-61
2022/02/12 03:56:31;;;;;;;9.93;6.93;;;;;;;;;;5001251;28;20647;-62
2022/02/12 03:58:57;;;;;;;9.32;6.60;;;;;;;;;;5008876;28;20355;-60
2022/02/12 04:01:22;;;;;;;10.93;7.03;;;;;;;;;;5016315;28;20038;-59
2022/02/12 04:03:47;;;;;;;10.07;6.67;;;;;;;;;;4986187;28;20830;-62
2022/02/12 04:06:12;;;;;;;9.50;7.32;;;;;;;;;;5003990;28;20794;-60
2022/02/12 04:08:38;;;;;;;9.53;7.00;;;;;;;;;;4986452;28;20014;-61
2022/02/12 04:11:03;;;;;;;9.67;6.57;;;;;;;;;;5004057;28;20279;-63
2022/02/12 04:13:32;;;;;;;9.52;6.57;;;;;;;;;;5003883;28;20266;-62
2022/02/12 04:15:57;;;;;;;8.25;5.82;;;;;;;;;;5004459;28;20080;-64
2022/02/12 04:18:22;;;;;;;8.80;6.30;;;;;;;;;;5003760;28;20033;-62
2022/02/12 04:20:47;;;;;;;9.43;6.60;;;;;;;;;;5003709;28;20301;-60
2022/02/12 04:23:13;;;;;;;8.23;5.95;;;;;;;;;;5003775;28;20415;-61
2022/02/12 04:25:38;;;;;;;9.18;6.68;;;;;;;;;;4982653;28;20054;-63
2022/02/12 04:28:06;;;;;;;9.43;6.67;;;;;;;;;;4997595;28;20425;-64
2022/02/12 04:30:32;;;;;;;9.38;6.60;;;;;;;;;;5002994;28;20265;-61
2022/02/12 04:32:57;;;;;;;9.77;7.15;;;;;;;;;;4984029;28;20531;-60
2022/02/12 04:35:22;;;;;;;9.07;6.40;;;;;;;;;;4992244;28;20026;-58
2022/02/12 04:37:47;;;;;;;8.60;6.10;;;;;;;;;;5003380;28;20347;-58
2022/02/12 04:40:13;;;;;;;9.33;6.57;;;;;;;;;;5017943;28;20280;-58
2022/02/12 04:42:38;;;;;;;9.45;6.45;;;;;;;;;;5005375;28;20288;-60
2022/02/12 04:45:04;;;;;;;9.43;6.57;;;;;;;;;;5004053;28;20484;-63
2022/02/12 04:47:29;;;;;;;9.57;6.38;;;;;;;;;;5003075;28;20061;-63
2022/02/12 04:49:55;;;;;;;8.57;6.10;;;;;;;;;;5004059;28;20026;-62
2022/02/12 04:52:20;;;;;;;8.45;6.00;;;;;;;;;;5003503;28;20309;-61
2022/02/12 04:54:45;;;;;;;7.55;5.88;;;;;;;;;;5003271;28;20068;-62
2022/02/12 04:57:10;;;;;;;8.98;6.78;;;;;;;;;;5003393;28;20101;-61
2022/02/12 04:59:36;;;;;;;9.63;6.17;;;;;;;;;;4994419;28;20022;-60
2022/02/12 05:02:01;;;;;;;9.55;6.53;;;;;;;;;;4975982;28;20329;-63
2022/02/12 05:04:26;;;;;;;8.68;5.82;;;;;;;;;;4984372;28;20400;-62
2022/02/12 05:06:52;;;;;;;8.97;6.20;;;;;;;;;;4986335;28;20021;-61
2022/02/12 05:09:17;;;;;;;9.05;6.32;;;;;;;;;;5005491;28;20276;-62
2022/02/12 05:11:43;;;;;;;9.35;6.13;;;;;;;;;;4997315;28;20030;-59
2022/02/12 05:14:08;;;;;;;8.30;5.93;;;;;;;;;;5001529;28;20049;-61
2022/02/12 05:16:33;;;;;;;8.50;6.38;;;;;;;;;;5007163;28;20029;-64
2022/02/12 05:18:59;;;;;;;8.83;5.93;;;;;;;;;;5003066;28;20022;-58
2022/02/12 05:21:24;;;;;;;9.33;6.00;;;;;;;;;;4987643;28;20653;-64
2022/02/12 05:23:49;;;;;;;7.57;5.80;;;;;;;;;;4987256;28;20273;-61
2022/02/12 05:26:16;;;;;;;8.07;6.07;;;;;;;;;;4987458;28;20344;-61
2022/02/12 05:28:41;;;;;;;7.93;6.05;;;;;;;;;;4987346;28;20476;-60
2022/02/12 05:31:06;;;;;;;7.53;5.65;;;;;;;;;;4992788;28;20029;-61
2022/02/12 05:33:34;;;;;;;8.40;6.00;;;;;;;;;;5006812;28;20481;-63
2022/02/12 05:35:59;;;;;;;7.13;5.43;;;;;;;;;;5007016;28;20328;-62
2022/02/12 05:38:24;;;;;;;8.63;5.70;;;;;;;;;;5007016;28;20022;-62
2022/02/12 05:40:49;;;;;;;7.90;5.80;;;;;;;;;;5006200;28;20088;-62
2022/02/12 05:43:14;;;;;;;7.90;5.60;;;;;;;;;;5007126;28;20269;-59
2022/02/12 05:45:44;;;;;;;7.43;5.67;;;;;;;;;;5007034;28;20265;-62
2022/02/12 05:48:09;;;;;;;8.20;5.90;;;;;;;;;;5006177;28;20346;-62
2022/02/12 05:50:34;;;;;;;7.55;5.72;;;;;;;;;;5006946;28;20026;-63
2022/02/12 05:53:00;;;;;;;7.85;5.35;;;;;;;;;;5006822;28;20037;-63
2022/02/12 05:55:25;;;;;;;7.57;5.60;;;;;;;;;;5006404;28;20034;-64
2022/02/12 05:57:58;;;;;;;8.02;5.35;;;;;;;;;;5006707;28;20315;-62
2022/02/12 06:00:23;;;;;;;8.52;5.60;;;;;;;;;;5006648;28;20456;-63
2022/02/12 06:02:49;;;;;;;7.20;5.82;;;;;;;;;;5006157;28;20056;-62
2022/02/12 06:05:14;;;;;;;7.73;5.70;;;;;;;;;;5006685;28;20062;-63
2022/02/12 06:07:40;;;;;;;7.35;5.28;;;;;;;;;;5006224;28;20272;-61
2022/02/12 06:10:05;;;;;;;7.40;5.30;;;;;;;;;;5006092;28;20080;-60
2022/02/12 06:12:30;;;;;;;7.32;5.75;;;;;;;;;;4989332;28;20030;-62
2022/02/12 06:14:55;;;;;;;7.67;5.77;;;;;;;;;;4990461;28;20026;-61
2022/02/12 06:17:21;;;;;;;12.07;8.60;;;;;;;;;;5006300;28;20273;-60
2022/02/12 06:19:46;;;;;;;8.80;6.47;;;;;;;;;;5016265;28;20092;-61
2022/02/12 06:22:11;;;;;;;7.07;5.07;;;;;;;;;;5011622;28;20309;-63
2022/02/12 06:24:36;;;;;;;9.57;5.83;;;;;;;;;;5005701;28;20288;-64
2022/02/12 06:27:04;;;;;;;7.68;5.60;;;;;;;;;;5005891;28;20264;-63
2022/02/12 06:29:29;;;;;;;8.05;5.60;;;;;;;;;;5005905;28;20056;-62
2022/02/12 06:31:54;;;;;;;7.77;5.50;;;;;;;;;;5005610;28;20053;-62
2022/02/12 06:34:20;;;;;;;8.77;5.70;;;;;;;;;;5005927;28;20858;-54
2022/02/12 06:36:45;;;;;;;6.40;4.97;;;;;;;;;;5005855;28;20901;-58
2022/02/12 06:39:10;;;;;;;7.60;5.50;;;;;;;;;;5005214;28;20352;-58
2022/02/12 06:41:35;;;;;;;7.00;4.93;;;;;;;;;;5005680;28;20370;-62
2022/02/12 06:44:01;;;;;;;6.70;5.07;;;;;;;;;;5005945;28;20276;-62
2022/02/12 06:46:26;;;;;;;6.70;5.00;;;;;;;;;;5005435;28;20312;-62
2022/02/12 06:48:51;;;;;;;8.70;5.80;;;;;;;;;;5005251;28;20010;-61
2022/02/12 06:51:17;;;;;;;7.40;5.27;;;;;;;;;;5000498;28;20045;-62
2022/02/12 06:53:43;;;;;;;6.72;5.38;;;;;;;;;;4985822;28;20288;-62
2022/02/12 06:56:08;;;;;;;8.02;5.40;;;;;;;;;;5000190;28;20026;-62
2022/02/12 06:58:33;;;;;;;7.47;5.33;;;;;;;;;;5006017;28;20050;-63
2022/02/12 07:00:59;;;;;;;7.57;5.28;;;;;;;;;;5020899;28;20888;-61
2022/02/12 07:03:24;;;;;;;6.87;4.67;;;;;;;;;;4988512;28;20065;-62
2022/02/12 07:05:49;;;;;;;7.30;5.23;;;;;;;;;;4990363;28;20274;-62
2022/02/12 07:08:14;;;;;;;6.20;5.13;;;;;;;;;;4987403;28;20645;-59
2022/02/12 07:10:39;;;;;;;7.93;5.33;;;;;;;;;;4987070;28;20261;-62
2022/02/12 07:13:05;;;;;;;6.33;4.63;;;;;;;;;;4987110;28;20194;-59
2022/02/12 07:15:30;;;;;;;5.93;4.68;;;;;;;;;;4989308;28;20308;-60
2022/02/12 07:17:55;;;;;;;6.97;4.88;;;;;;;;;;4989023;28;20026;-61
2022/02/12 07:20:21;;;;;;;6.63;4.30;;;;;;;;;;4985245;28;20073;-63
2022/02/12 07:22:46;;;;;;;7.72;4.90;;;;;;;;;;4986221;28;20109;-62
2022/02/12 07:25:12;;;;;;;8.63;5.50;;;;;;;;;;5004756;28;20044;-64
2022/02/12 07:27:40;;;;;;;9.50;4.90;;;;;;;;;;4984148;28;20038;-63
2022/02/12 07:30:06;;;;;;;11.02;5.15;;;;;;;;;;4980869;28;20029;-61
2022/02/12 07:32:31;;;;;;;10.27;5.40;;;;;;;;;;4983395;28;20053;-60
2022/02/12 07:34:57;;;;;;;7.40;4.97;;;;;;;;;;4999158;28;20053;-60
2022/02/12 07:37:22;;;;;;;6.88;4.70;;;;;;;;;;5003801;28;20277;-61
2022/02/12 07:39:47;;;;;;;6.30;4.67;;;;;;;;;;5004056;28;20072;-59
2022/02/12 07:42:12;;;;;;;6.40;4.05;;;;;;;;;;5004524;28;20311;-60
2022/02/12 07:44:38;;;;;;;6.28;4.90;;;;;;;;;;5004793;28;20045;-61
2022/02/12 07:47:03;;;;;;;7.93;4.90;;;;;;;;;;5004151;28;20122;-63
2022/02/12 07:49:29;;;;;;;5.80;4.22;;;;;;;;;;5004491;28;20273;-58
2022/02/12 07:51:54;;;;;;;6.82;4.85;;;;;;;;;;4993148;28;20030;-64
2022/02/12 07:54:19;;;;;;;7.07;4.93;;;;;;;;;;4984508;28;20050;-62
2022/02/12 07:56:44;;;;;;;6.27;4.87;;;;;;;;;;5001946;28;20276;-63
2022/02/12 07:59:09;;;;;;;7.17;4.83;;;;;;;;;;5004099;28;20272;-65
2022/02/12 08:01:35;;;;;;;7.27;4.67;;;;;;;;;;5003808;28;20304;-63
2022/02/12 08:04:00;;;;;;;6.80;4.77;;;;;;;;;;5004819;28;20273;-63
2022/02/12 08:09:09;;;;;;;6.45;4.90;;;;;;;;;;5004117;28;20274;-64
2022/02/12 08:11:42;;;;;;;7.07;4.37;;;;;;;;;;5003544;28;20569;-62
2022/02/12 08:14:09;;;;;;;6.70;4.22;;;;;;;;;;4987412;28;20289;-62
2022/02/12 08:16:34;;;;;;;7.13;4.70;;;;;;;;;;5001975;28;20467;-61
2022/02/12 08:18:59;;;;;;;6.17;4.67;;;;;;;;;;5003278;28;20269;-60
2022/02/12 08:21:25;;;;;;;6.57;4.60;;;;;;;;;;5003608;28;20388;-57
2022/02/12 08:23:50;;;;;;;7.18;4.90;;;;;;;;;;5003347;28;20335;-62
2022/02/12 08:26:15;;;;;;;5.63;4.27;;;;;;;;;;4969060;28;20029;-57
2022/02/12 08:28:41;;;;;;;5.63;4.50;;;;;;;;;;5003290;28;20339;-62
2022/02/12 08:31:06;;;;;;;6.30;4.35;;;;;;;;;;5003520;28;20087;-61
2022/02/12 08:33:32;;;;;;;6.32;4.97;;;;;;;;;;4986441;28;20024;-62
2022/02/12 08:35:57;;;;;;;6.25;4.63;;;;;;;;;;5005963;28;20030;-63
2022/02/12 08:38:22;;;;;;;7.25;4.50;;;;;;;;;;5006459;28;20026;-59
2022/02/12 08:40:48;;;;;;;7.47;4.60;;;;;;;;;;5004168;28;20699;-60
2022/02/12 08:43:14;;;;;;;7.13;4.50;;;;;;;;;;4994011;28;20285;-59
2022/02/12 08:45:39;;;;;;;8.13;5.15;;;;;;;;;;4989212;28;20042;-63
2022/02/12 08:48:06;;;;;;;6.60;4.70;;;;;;;;;;4982820;28;20086;-60
2022/02/12 08:50:31;;;;;;;7.18;4.50;;;;;;;;;;4965730;28;20025;-63
2022/02/12 08:52:56;;;;;;;7.85;4.80;;;;;;;;;;4982667;28;20022;-62
2022/02/12 08:55:22;;;;;;;6.47;4.50;;;;;;;;;;4982487;28;20532;-62
2022/02/12 08:57:47;;;;;;;6.60;4.63;;;;;;;;;;4988547;28;20327;-62
2022/02/12 09:00:12;;;;;;;6.43;4.67;;;;;;;;;;5005891;28;20269;-65
2022/02/12 09:02:38;;;;;;;6.68;4.90;;;;;;;;;;5000703;28;20877;-63
2022/02/12 09:05:03;;;;;;;5.43;4.43;;;;;;;;;;5001711;28;20022;-62
2022/02/12 09:07:28;;;;;;;7.80;4.50;;;;;;;;;;5000485;28;20648;-60
2022/02/12 09:09:54;;;;;;;5.97;4.63;;;;;;;;;;5002568;28;20550;-62
2022/02/12 09:12:19;;;;;;;5.72;4.35;;;;;;;;;;5002632;28;20471;-61
2022/02/12 09:14:45;;;;;;;6.90;4.72;;;;;;;;;;5002305;28;20491;-60
2022/02/12 09:17:10;;;;;;;6.77;4.73;;;;;;;;;;5002328;28;20037;-59
2022/02/12 09:19:35;;;;;;;7.38;4.68;;;;;;;;;;5001163;28;20269;-60
2022/02/12 09:22:01;;;;;;;7.57;4.88;;;;;;;;;;5002330;28;20191;-60
2022/02/12 09:24:26;;;;;;;6.53;4.50;;;;;;;;;;5002297;28;20084;-64
2022/02/12 09:26:51;;;;;;;5.80;4.20;;;;;;;;;;5002540;28;20893;-65
2022/02/12 09:29:16;;;;;;;5.17;4.40;;;;;;;;;;5002970;28;20033;-62
2022/02/12 09:31:42;;;;;;;8.60;4.90;;;;;;;;;;5002072;28;20277;-64
2022/02/12 09:34:08;;;;;;;7.50;4.10;;;;;;;;;;5002729;28;20304;-56
2022/02/12 09:36:33;;;;;;;6.25;4.50;;;;;;;;;;4990053;28;20094;-63
2022/02/12 09:38:58;;;;;;;6.38;4.28;;;;;;;;;;4984024;28;20703;-59
2022/02/12 09:41:26;;;;;;;5.97;4.13;;;;;;;;;;4983820;28;20038;-61
2022/02/12 09:43:54;;;;;;;6.88;4.72;;;;;;;;;;4967406;28;20280;-62
2022/02/12 09:46:20;;;;;;;7.15;4.30;;;;;;;;;;4983975;28;20049;-61
2022/02/12 09:48:46;;;;;;;5.77;4.33;;;;;;;;;;4985263;28;20030;-58
2022/02/12 09:51:12;;;;;;;8.65;4.22;;;;;;;;;;4984457;28;20273;-61
2022/02/12 09:53:37;;;;;;;6.28;4.45;;;;;;;;;;4983793;28;20697;-62
2022/02/12 09:56:02;;;;;;;5.87;4.10;;;;;;;;;;4987479;28;20026;-60
2022/02/12 09:58:28;;;;;;;5.60;4.30;;;;;;;;;;4987932;28;20681;-57
2022/02/12 10:00:53;;;;;;;5.37;3.80;;;;;;;;;;5005332;28;20467;-60
2022/02/12 10:03:18;;;;;;;7.35;4.00;;;;;;;;;;5006202;28;20284;-61
2022/02/12 10:05:53;;;;;;;4.73;3.80;;;;;;;;;;5006360;28;20025;-58
2022/02/12 10:08:19;;;;;;;5.43;3.72;;;;;;;;;;5005941;28;20132;-63
2022/02/12 10:10:45;;;;;;;6.72;4.03;;;;;;;;;;5005363;28;20753;-59
2022/02/12 10:13:12;;;;;;;4.53;3.42;;;;;;;;;;5005383;28;20116;-62
2022/02/12 10:15:37;;;;;;;7.10;3.97;;;;;;;;;;4993663;28;20022;-58
2022/02/12 10:18:03;;;;;;;7.43;3.70;;;;;;;;;;5001147;28;20045;-62
2022/02/12 10:20:30;;;;;;;5.40;3.45;;;;;;;;;;4979511;28;20080;-63
2022/02/12 10:23:10;;;;;;;6.85;3.60;;;;;;;;;;5005384;28;20044;-61
2022/02/12 10:25:36;;;;;;;5.72;3.40;;;;;;;;;;5004713;28;20049;-61
2022/02/12 10:28:02;;;;;;;6.85;3.80;;;;;;;;;;5005796;28;20022;-58
2022/02/12 10:30:27;;;;;;;5.75;3.25;;;;;;;;;;5003776;28;20037;-63
2022/02/12 10:32:59;;;;;;;5.25;3.67;;;;;;;;;;5003363;28;20057;-61
2022/02/12 10:35:25;;;;;;;4.32;3.30;;;;;;;;;;5006681;28;20034;-61
2022/02/12 10:37:50;;;;;;;6.57;3.42;;;;;;;;;;5005432;28;20033;-58
2022/02/12 10:40:15;;;;;;;4.65;3.47;;;;;;;;;;5005244;28;20029;-61
2022/02/12 10:42:44;;;;;;;4.78;3.33;;;;;;;;;;5005590;28;20042;-61
2022/02/12 10:45:14;;;;;;;6.85;3.33;;;;;;;;;;5005698;28;20635;-61
2022/02/12 10:47:48;;;;;;;5.97;3.10;;;;;;;;;;5005681;28;20053;-62
2022/02/12 10:50:14;;;;;;;5.25;2.90;;;;;;;;;;4988286;28;20029;-61
2022/02/12 10:52:40;;;;;;;5.35;3.22;;;;;;;;;;4988760;28;20094;-59
2022/02/12 10:55:06;;;;;;;4.88;3.00;;;;;;;;;;4989704;28;20057;-61
2022/02/12 10:57:38;;;;;;;5.00;3.55;;;;;;;;;;5005226;28;20032;-61
2022/02/12 11:00:04;;;;;;;5.30;2.92;;;;;;;;;;4989134;28;20069;-60
2022/02/12 11:02:29;;;;;;;5.63;3.50;;;;;;;;;;5004974;28;20066;-62
2022/02/12 11:04:54;;;;;;;6.43;3.47;;;;;;;;;;4988123;28;20030;-64
2022/02/12 11:07:19;;;;;;;5.00;3.15;;;;;;;;;;4987085;28;20036;-63
2022/02/12 11:09:46;;;;;;;5.07;3.10;;;;;;;;;;5004825;28;20036;-61
2022/02/12 11:12:11;;;;;;;5.35;3.08;;;;;;;;;;4987515;28;20280;-57
2022/02/12 11:14:37;;;;;;;5.55;3.03;;;;;;;;;;4996626;28;20214;-59
2022/02/12 11:17:03;;;;;;;4.77;3.10;;;;;;;;;;5004605;28;20547;-60
2022/02/12 11:19:28;;;;;;;6.05;3.13;;;;;;;;;;4987747;28;20431;-55
2022/02/12 11:21:55;;;;;;;5.22;2.70;;;;;;;;;;5005261;28;20048;-63
2022/02/12 11:24:32;;;;;;;4.35;2.88;;;;;;;;;;4983883;28;20473;-62
2022/02/12 11:26:58;;;;;;;5.22;2.78;;;;;;;;;;5004566;28;20124;-60
2022/02/12 11:29:43;;;;;;;5.88;3.13;;;;;;;;;;5005141;28;20117;-61
2022/02/12 11:32:11;;;;;;;4.55;3.00;;;;;;;;;;4976696;28;20018;-61
2022/02/12 11:34:39;;;;;;;4.55;2.80;;;;;;;;;;5001418;28;20078;-62
2022/02/12 11:37:18;;;;;;;7.05;3.15;;;;;;;;;;5004451;28;20097;-59
2022/02/12 11:40:02;;;;;;;3.80;2.80;;;;;;;;;;5004001;28;20045;-59
2022/02/12 11:42:39;;;;;;;5.18;2.92;;;;;;;;;;5003990;28;20884;-61
2022/02/12 11:45:25;;;;;;;4.05;2.83;;;;;;;;;;5001659;28;20108;-59
2022/02/12 11:48:10;;;;;;;5.20;3.22;;;;;;;;;;5003667;28;20049;-61
2022/02/12 11:50:41;;;;;;;6.15;2.92;;;;;;;;;;4986470;28;20807;-60
2022/02/12 11:53:06;;;;;;;4.47;2.88;;;;;;;;;;4991138;28;20025;-62
2022/02/12 11:55:32;;;;;;;3.80;2.75;;;;;;;;;;4985798;28;20029;-62
2022/02/12 11:57:57;;;;;;;5.30;3.17;;;;;;;;;;4987351;28;20026;-63
2022/02/12 12:00:23;;;;;;;4.70;2.93;;;;;;;;;;4984266;28;20109;-64
2022/02/12 12:02:48;;;;;;;5.97;2.97;;;;;;;;;;4999644;28;20061;-61
2022/02/12 12:05:17;;;;;;;7.38;3.17;;;;;;;;;;4999170;28;20018;-62
2022/02/12 12:08:11;;;;;;;4.93;3.08;;;;;;;;;;4984403;28;20036;-62
2022/02/12 12:10:36;;;;;;;4.45;3.00;;;;;;;;;;4968125;28;20033;-62
2022/02/12 12:13:11;;;;;;;4.80;3.20;;;;;;;;;;4993869;28;20026;-62
2022/02/12 12:15:37;;;;;;;5.55;3.30;;;;;;;;;;5003774;28;20348;-62
2022/02/12 12:18:03;;;;;;;6.05;3.38;;;;;;;;;;5003246;28;20116;-58
2022/02/12 12:20:32;;;;;;;10.30;3.80;;;;;;;;;;4986253;28;20532;-64
2022/02/12 12:23:04;;;;;;;8.87;4.60;;;;;;;;;;5003841;28;20030;-59
2022/02/12 12:25:46;;;;;;;6.47;3.67;;;;;;;;;;5003866;28;20026;-62
2022/02/12 12:28:22;;;;;;;8.50;3.35;;;;;;;;;;4986556;28;20481;-61
2022/02/12 12:30:47;;;;;;;9.70;3.67;;;;;;;;;;5002823;28;20867;-61
2022/02/12 12:33:14;;;;;;;5.43;3.13;;;;;;;;;;4998825;28;20108;-61
2022/02/12 12:35:40;;;;;;;5.03;3.22;;;;;;;;;;4985989;28;20022;-63
2022/02/12 12:38:10;;;;;;;5.10;2.95;;;;;;;;;;4991428;28;20458;-59
2022/02/12 12:40:36;;;;;;;8.07;3.50;;;;;;;;;;4983521;28;20018;-64
2022/02/12 12:43:05;;;;;;;6.00;3.28;;;;;;;;;;4967808;28;20097;-62
2022/02/12 12:45:30;;;;;;;7.35;4.72;;;;;;;;;;4970934;28;20450;-62
2022/02/12 12:47:58;;;;;;;6.60;3.23;;;;;;;;;;4984057;28;20077;-62
2022/02/12 12:50:23;;;;;;;7.63;3.35;;;;;;;;;;4985006;28;20273;-55
2022/02/12 12:52:59;;;;;;;7.78;3.35;;;;;;;;;;4991653;28;20073;-56
2022/02/12 12:55:24;;;;;;;4.00;2.63;;;;;;;;;;4985777;28;20025;-62
2022/02/12 12:57:49;;;;;;;4.60;3.00;;;;;;;;;;4981457;28;20105;-61
2022/02/12 13:00:17;;;;;;;4.63;2.80;;;;;;;;;;4986022;28;20305;-62
2022/02/12 13:02:46;;;;;;;5.30;3.83;;;;;;;;;;4964770;28;20122;-56
2022/02/12 13:05:12;;;;;;;5.07;3.10;;;;;;;;;;4989173;28;20461;-64
2022/02/12 13:07:37;;;;;;;6.73;2.57;;;;;;;;;;5003591;28;20089;-63
2022/02/12 13:10:03;;;;;;;3.53;2.50;;;;;;;;;;4992008;28;20935;-60
2022/02/12 13:12:38;;;;;;;4.90;3.08;;;;;;;;;;4980873;28;20030;-59
2022/02/12 13:15:04;;;;;;;3.83;2.55;;;;;;;;;;4994153;28;20022;-59
2022/02/12 13:17:30;;;;;;;4.53;2.92;;;;;;;;;;4996558;28;20045;-62
2022/02/12 13:20:02;;;;;;;4.45;2.90;;;;;;;;;;5004973;28;20021;-63
2022/02/12 13:22:31;;;;;;;4.38;2.83;;;;;;;;;;5008685;28;20042;-59
2022/02/12 13:24:56;;;;;;;5.50;2.83;;;;;;;;;;5002788;28;20022;-61
2022/02/12 13:27:23;;;;;;;5.43;2.63;;;;;;;;;;4985654;28;20029;-62
2022/02/12 13:29:49;;;;;;;4.53;2.38;;;;;;;;;;5005259;28;20267;-60
2022/02/12 13:32:14;;;;;;;3.75;2.63;;;;;;;;;;5007096;28;20056;-62
2022/02/12 13:34:41;;;;;;;3.80;2.40;;;;;;;;;;5007412;28;20114;-58
2022/02/12 13:37:07;;;;;;;4.43;2.55;;;;;;;;;;5007187;28;20269;-60
2022/02/12 13:39:32;;;;;;;3.15;2.20;;;;;;;;;;5006271;28;20693;-60
2022/02/12 13:41:58;;;;;;;6.83;2.67;;;;;;;;;;4987191;28;20065;-62
2022/02/12 13:44:27;;;;;;;4.40;2.70;;;;;;;;;;4999890;28;20018;-62
2022/02/12 13:46:52;;;;;;;5.00;2.28;;;;;;;;;;4984550;28;20133;-56
2022/02/12 13:49:18;;;;;;;6.00;2.33;;;;;;;;;;4987437;28;20101;-62
2022/02/12 13:51:53;;;;;;;4.80;2.80;;;;;;;;;;4994632;28;20276;-62
2022/02/12 13:54:19;;;;;;;4.60;2.42;;;;;;;;;;5005559;28;20022;-61
2022/02/12 13:56:46;;;;;;;4.45;2.60;;;;;;;;;;4994870;28;20632;-63
2022/02/12 13:59:11;;;;;;;3.85;2.80;;;;;;;;;;4987395;28;20116;-62
2022/02/12 14:01:36;;;;;;;3.73;2.37;;;;;;;;;;5004408;28;20113;-61
2022/02/12 14:04:02;;;;;;;3.13;2.30;;;;;;;;;;5004823;28;20844;-61
2022/02/12 14:06:27;;;;;;;3.90;2.42;;;;;;;;;;5003982;28;20866;-60
2022/02/12 14:08:52;;;;;;;6.07;2.40;;;;;;;;;;4987709;28;20022;-60
2022/02/12 14:11:19;;;;;;;12.63;2.70;;;;;;;;;;4988090;28;19999;-62
2022/02/12 14:13:45;;;;;;;3.53;2.08;;;;;;;;;;4998897;28;20590;-61
2022/02/12 14:16:10;;;;;;;6.43;2.40;;;;;;;;;;5010257;28;20029;-61
2022/02/12 14:18:35;;;;;;;5.32;2.45;;;;;;;;;;4999738;28;20027;-62
2022/02/12 14:21:05;;;;;;;3.80;2.20;;;;;;;;;;5000099;28;20477;-64
2022/02/12 14:23:30;;;;;;;4.63;2.17;;;;;;;;;;4984209;28;20101;-65
2022/02/12 14:25:56;;;;;;;3.50;1.93;;;;;;;;;;4984223;28;20786;-64
2022/02/12 14:28:21;;;;;;;4.80;2.20;;;;;;;;;;5000818;28;20276;-65
2022/02/12 14:30:46;;;;;;;5.73;2.53;;;;;;;;;;5002617;28;20265;-64
2022/02/12 14:33:11;;;;;;;4.00;1.83;;;;;;;;;;4986889;28;20662;-60
2022/02/12 14:35:37;;;;;;;4.00;1.90;;;;;;;;;;5003153;28;20273;-65
2022/02/12 14:38:02;;;;;;;2.63;1.63;;;;;;;;;;5002677;28;20030;-63
2022/02/12 14:40:28;;;;;;;3.77;2.47;;;;;;;;;;5002666;28;20432;-59
2022/02/12 14:42:53;;;;;;;4.57;2.10;;;;;;;;;;5001279;28;20352;-62